createdAt,value
2023-02-12T00:01:58.114Z,5.60
2023-02-12T00:04:24.694Z,5.60
2023-02-12T00:06:51.335Z,5.60
2023-02-12T00:09:17.819Z,5.60
2023-02-12T00:11:44.332Z,5.60
2023-02-12T00:14:10.962Z,5.60
2023-02-12T00:16:37.471Z,5.60
2023-02-12T00:19:04.025Z,5.60
2023-02-12T00:21:30.655Z,5.60
2023-02-12T00:23:57.571Z,5.60
2023-02-12T00:26:24.454Z,5.60
2023-02-12T00:28:51.550Z,5.60
2023-02-12T00:31:19.655Z,5.60
2023-02-12T00:33:46.326Z,5.60
2023-02-12T00:36:17.490Z,5.60
2023-02-12T00:38:44.235Z,5.60
2023-02-12T00:41:10.849Z,5.60
2023-02-12T00:43:37.409Z,5.70
2023-02-12T00:46:04.988Z,5.60
2023-02-12T00:48:31.545Z,5.60
2023-02-12T00:50:58.078Z,5.60
2023-02-12T00:53:24.763Z,5.60
2023-02-12T00:55:51.681Z,5.60
2023-02-12T00:58:19.064Z,5.60
2023-02-12T01:00:45.754Z,5.50
2023-02-12T01:03:12.270Z,5.50
2023-02-12T01:05:38.802Z,5.50
2023-02-12T01:08:05.639Z,5.60
2023-02-12T01:10:32.302Z,5.50
2023-02-12T01:12:58.827Z,5.50
2023-02-12T01:15:25.358Z,5.50
2023-02-12T01:17:53.175Z,5.40
2023-02-12T01:20:20.711Z,5.40
2023-02-12T01:22:47.519Z,5.50
2023-02-12T01:25:14.405Z,5.50
2023-02-12T01:27:41.128Z,5.50
2023-02-12T01:30:09.098Z,5.50
2023-02-12T01:32:35.696Z,5.50
2023-02-12T01:35:02.292Z,5.50
2023-02-12T01:37:28.846Z,5.50
2023-02-12T01:39:55.441Z,5.50
2023-02-12T01:42:21.988Z,5.50
2023-02-12T01:45:07.548Z,5.50
2023-02-12T01:47:34.073Z,5.50
2023-02-12T01:50:00.634Z,5.50
2023-02-12T01:52:29.451Z,5.50
2023-02-12T01:54:58.439Z,5.50
2023-02-12T01:57:26.518Z,5.50
2023-02-12T01:59:54.686Z,5.50
2023-02-12T02:02:21.202Z,5.50
2023-02-12T02:04:49.703Z,5.60
2023-02-12T02:07:16.276Z,5.60
2023-02-12T02:09:43.285Z,5.60
2023-02-12T02:12:28.591Z,5.60
2023-02-12T02:14:57.076Z,5.60
2023-02-12T02:17:42.883Z,5.60
2023-02-12T02:20:28.331Z,5.60
2023-02-12T02:23:13.665Z,5.60
2023-02-12T02:25:59.257Z,5.60
2023-02-12T02:28:33.725Z,5.60
2023-02-12T02:31:04.135Z,5.60
2023-02-12T02:33:41.930Z,5.60
2023-02-12T02:36:17.659Z,5.50
2023-02-12T02:38:49.921Z,5.50
2023-02-12T02:41:19.552Z,5.50
2023-02-12T02:43:50.943Z,5.50
2023-02-12T02:46:20.205Z,5.60
2023-02-12T02:48:50.162Z,5.50
2023-02-12T02:51:20.274Z,5.60
2023-02-12T02:53:53.766Z,5.60
2023-02-12T02:56:21.995Z,5.50
2023-02-12T02:58:51.250Z,5.70
2023-02-12T03:01:20.238Z,5.60
2023-02-12T03:03:53.004Z,5.60
2023-02-12T03:06:40.133Z,5.60
2023-02-12T03:09:13.109Z,5.60
2023-02-12T03:11:40.206Z,5.60
2023-02-12T03:14:09.952Z,5.60
2023-02-12T03:16:40.853Z,5.60
2023-02-12T03:19:10.914Z,5.60
2023-02-12T03:21:41.986Z,5.60
2023-02-12T03:24:27.471Z,5.60
2023-02-12T03:27:04.072Z,5.60
2023-02-12T03:29:31.458Z,5.60
2023-02-12T03:32:13.733Z,5.60
2023-02-12T03:34:49.308Z,5.60
2023-02-12T03:37:21.622Z,5.60
2023-02-12T03:40:00.963Z,5.60
2023-02-12T03:42:27.532Z,5.60
2023-02-12T03:45:14.325Z,5.20
2023-02-12T03:47:46.972Z,5.60
2023-02-12T03:50:15.971Z,5.60
2023-02-12T03:52:43.426Z,5.50
2023-02-12T03:55:10.520Z,5.60
2023-02-12T03:57:49.226Z,5.50
2023-02-12T04:00:19.010Z,5.60
2023-02-12T04:02:45.944Z,5.60
2023-02-12T04:05:19.878Z,5.50
2023-02-12T04:07:46.891Z,5.70
2023-02-12T04:10:13.577Z,5.50
2023-02-12T04:12:43.601Z,5.50
2023-02-12T04:15:25.750Z,5.40
2023-02-12T04:17:55.458Z,5.50
2023-02-12T04:20:21.980Z,5.50
2023-02-12T04:22:51.622Z,5.50
2023-02-12T04:25:18.197Z,5.50
2023-02-12T04:27:48.742Z,5.50
2023-02-12T04:30:22.285Z,5.50
2023-02-12T04:32:51.747Z,5.50
2023-02-12T04:35:23.629Z,5.50
2023-02-12T04:37:57.231Z,5.50
2023-02-12T04:40:24.149Z,5.50
2023-02-12T04:42:51.966Z,5.40
2023-02-12T04:45:26.630Z,5.40
2023-02-12T04:47:53.337Z,5.40
2023-02-12T04:50:20.147Z,5.40
2023-02-12T04:52:47.332Z,5.40
2023-02-12T04:55:13.925Z,5.40
2023-02-12T04:57:40.542Z,5.50
2023-02-12T05:00:07.725Z,5.00
2023-02-12T05:02:34.889Z,5.40
2023-02-12T05:05:01.612Z,5.40
2023-02-12T05:07:28.160Z,5.30
2023-02-12T05:09:54.792Z,5.40
2023-02-12T05:12:21.288Z,5.40
2023-02-12T05:14:47.851Z,5.40
2023-02-12T05:17:14.356Z,5.30
2023-02-12T05:19:40.913Z,5.40
2023-02-12T05:22:07.605Z,5.30
2023-02-12T05:24:34.175Z,5.30
2023-02-12T05:27:00.777Z,5.30
2023-02-12T05:29:27.390Z,5.20
2023-02-12T05:31:54.111Z,5.30
2023-02-12T05:34:20.960Z,5.20
2023-02-12T05:36:47.570Z,5.20
2023-02-12T05:39:14.157Z,5.20
2023-02-12T05:41:40.687Z,5.20
2023-02-12T05:44:07.261Z,5.20
2023-02-12T05:46:33.881Z,5.20
2023-02-12T05:49:00.422Z,5.20
2023-02-12T05:51:27.718Z,5.20
2023-02-12T05:53:58.766Z,5.10
2023-02-12T05:56:29.223Z,5.10
2023-02-12T05:58:57.792Z,5.00
2023-02-12T06:01:31.974Z,5.10
2023-02-12T06:03:59.486Z,5.10
2023-02-12T06:06:27.015Z,5.10
2023-02-12T06:08:53.899Z,5.10
2023-02-12T06:11:20.873Z,5.10
2023-02-12T06:13:48.266Z,5.10
2023-02-12T06:16:22.611Z,5.10
2023-02-12T06:18:49.332Z,5.10
2023-02-12T06:21:16.506Z,5.10
2023-02-12T06:23:43.276Z,5.20
2023-02-12T06:26:10.123Z,5.20
2023-02-12T06:28:36.875Z,5.10
2023-02-12T06:31:03.525Z,5.10
2023-02-12T06:33:30.452Z,5.10
2023-02-12T06:35:57.347Z,5.00
2023-02-12T06:38:24.155Z,5.10
2023-02-12T06:40:50.667Z,5.10
2023-02-12T06:43:17.218Z,5.10
2023-02-12T06:45:43.842Z,5.10
2023-02-12T06:48:10.360Z,5.10
2023-02-12T06:50:36.967Z,5.10
2023-02-12T06:53:03.826Z,5.20
2023-02-12T06:55:30.391Z,5.20
2023-02-12T06:57:56.904Z,5.20
2023-02-12T07:00:23.825Z,5.10
2023-02-12T07:02:56.271Z,5.20
2023-02-12T07:05:23.697Z,5.20
2023-02-12T07:07:50.332Z,5.20
2023-02-12T07:10:17.470Z,5.30
2023-02-12T07:12:44.199Z,5.20
2023-02-12T07:15:11.397Z,5.20
2023-02-12T07:17:38.092Z,5.20
2023-02-12T07:20:05.200Z,5.40
2023-02-12T07:22:31.804Z,5.30
2023-02-12T07:24:58.291Z,5.30
2023-02-12T07:27:24.996Z,5.40
2023-02-12T07:29:51.837Z,5.40
2023-02-12T07:32:18.524Z,5.40
2023-02-12T07:34:45.088Z,5.40
2023-02-12T07:37:11.706Z,5.40
2023-02-12T07:39:38.294Z,5.40
2023-02-12T07:42:04.869Z,5.50
2023-02-12T07:44:32.321Z,5.50
2023-02-12T07:46:58.876Z,5.50
2023-02-12T07:49:25.383Z,5.60
2023-02-12T07:51:51.945Z,5.60
2023-02-12T07:54:18.451Z,5.60
2023-02-12T07:56:46.979Z,5.50
2023-02-12T07:59:15.315Z,5.60
2023-02-12T08:01:51.991Z,5.60
2023-02-12T08:04:20.394Z,5.60
2023-02-12T08:06:49.065Z,5.60
2023-02-12T08:09:17.501Z,5.70
2023-02-12T08:11:44.404Z,5.80
2023-02-12T08:14:11.956Z,5.80
2023-02-12T08:16:39.550Z,5.80
2023-02-12T08:19:17.588Z,5.90
2023-02-12T08:21:47.450Z,6.10
2023-02-12T08:24:14.088Z,6.30
2023-02-12T08:26:40.739Z,6.40
2023-02-12T08:29:09.377Z,6.60
2023-02-12T08:31:37.345Z,6.70
2023-02-12T08:34:04.514Z,6.80
2023-02-12T08:36:35.563Z,6.90
2023-02-12T08:39:02.115Z,7.10
2023-02-12T08:41:29.267Z,7.30
2023-02-12T08:43:57.623Z,7.60
2023-02-12T08:46:25.819Z,7.80
2023-02-12T08:48:56.756Z,8.10
2023-02-12T08:51:24.252Z,8.30
2023-02-12T08:53:55.319Z,8.40
2023-02-12T08:56:22.339Z,8.50
2023-02-12T08:58:49.081Z,8.70
2023-02-12T09:01:17.271Z,8.80
2023-02-12T09:03:44.255Z,8.80
2023-02-12T09:06:11.105Z,8.80
2023-02-12T09:08:38.354Z,8.70
2023-02-12T09:11:06.099Z,8.60
2023-02-12T09:13:32.824Z,8.60
2023-02-12T09:16:00.830Z,8.70
2023-02-12T09:18:27.374Z,8.70
2023-02-12T09:20:54.052Z,8.60
2023-02-12T09:23:20.605Z,8.60
2023-02-12T09:25:47.140Z,8.60
2023-02-12T09:28:14.456Z,8.50
2023-02-12T09:30:41.606Z,8.70
2023-02-12T09:33:09.886Z,8.70
2023-02-12T09:35:39.975Z,8.70
2023-02-12T09:38:07.021Z,8.70
2023-02-12T09:40:53.793Z,8.60
2023-02-12T09:43:33.378Z,8.40
2023-02-12T09:46:03.769Z,8.50
2023-02-12T09:48:35.228Z,8.60
2023-02-12T09:51:05.752Z,8.60
2023-02-12T09:53:32.427Z,8.60
2023-02-12T09:55:59.299Z,8.70
2023-02-12T09:58:34.141Z,8.70
2023-02-12T10:01:01.584Z,8.70
2023-02-12T10:03:30.510Z,8.70
2023-02-12T10:06:00.610Z,8.70
2023-02-12T10:08:45.918Z,8.80
2023-02-12T10:11:38.851Z,8.70
2023-02-12T10:14:11.517Z,8.80
2023-02-12T10:16:56.687Z,8.80
2023-02-12T10:19:26.293Z,8.80
2023-02-12T10:22:10.595Z,8.80
2023-02-12T10:24:49.444Z,8.80
2023-02-12T10:27:16.976Z,8.90
2023-02-12T10:29:45.387Z,8.90
2023-02-12T10:32:32.246Z,8.90
2023-02-12T10:34:59.655Z,8.90
2023-02-12T10:37:37.153Z,8.90
2023-02-12T10:40:15.772Z,8.90
2023-02-12T10:42:43.657Z,8.90
2023-02-12T10:45:17.736Z,9.10
2023-02-12T10:47:45.593Z,9.20
2023-02-12T10:50:17.029Z,9.30
2023-02-12T10:53:00.794Z,9.40
2023-02-12T10:55:32.279Z,9.60
2023-02-12T10:57:59.473Z,9.70
2023-02-12T11:00:36.146Z,9.70
2023-02-12T11:03:03.025Z,9.70
2023-02-12T11:05:30.659Z,9.70
2023-02-12T11:08:00.257Z,9.70
2023-02-12T11:10:31.904Z,9.80
2023-02-12T11:12:59.440Z,9.90
2023-02-12T11:15:31.221Z,9.90
2023-02-12T11:18:04.342Z,9.80
2023-02-12T11:20:31.618Z,9.80
2023-02-12T11:22:59.331Z,9.70
2023-02-12T11:25:30.642Z,9.60
2023-02-12T11:28:14.122Z,9.70
2023-02-12T11:30:55.986Z,9.60
2023-02-12T11:33:24.468Z,9.50
2023-02-12T11:35:52.750Z,9.50
2023-02-12T11:38:27.065Z,9.40
2023-02-12T11:40:56.378Z,9.40
2023-02-12T11:43:24.895Z,9.30
2023-02-12T11:45:53.310Z,9.50
2023-02-12T11:48:22.495Z,9.30
2023-02-12T11:50:51.037Z,9.30
2023-02-12T11:53:34.119Z,9.40
2023-02-12T11:56:02.827Z,9.40
2023-02-12T11:58:29.879Z,9.30
2023-02-12T12:01:05.631Z,9.30
2023-02-12T12:03:49.024Z,9.30
2023-02-12T12:06:24.791Z,9.30
2023-02-12T12:08:56.388Z,9.40
2023-02-12T12:11:43.460Z,9.50
2023-02-12T12:14:29.106Z,9.40
2023-02-12T12:17:24.047Z,9.40
2023-02-12T12:20:06.531Z,9.40
2023-02-12T12:22:51.869Z,9.40
2023-02-12T12:25:32.885Z,9.20
2023-02-12T12:28:13.329Z,9.30
2023-02-12T12:30:40.053Z,9.30
2023-02-12T12:33:12.456Z,9.30
2023-02-12T12:35:52.749Z,9.40
2023-02-12T12:38:27.427Z,9.40
2023-02-12T12:41:00.805Z,9.50
2023-02-12T12:43:27.337Z,9.70
2023-02-12T12:46:03.989Z,9.80
2023-02-12T12:48:45.962Z,9.80
2023-02-12T12:51:31.544Z,10.00
2023-02-12T12:54:07.547Z,10.10
2023-02-12T12:56:41.955Z,10.30
2023-02-12T12:59:17.781Z,10.20
2023-02-12T13:01:56.260Z,10.30
2023-02-12T13:04:49.032Z,10.20
2023-02-12T13:07:15.529Z,10.20
2023-02-12T13:09:48.209Z,10.30
2023-02-12T13:12:32.980Z,10.50
2023-02-12T13:14:59.502Z,10.50
2023-02-12T13:17:29.964Z,10.70
2023-02-12T13:20:04.648Z,10.60
2023-02-12T13:22:40.618Z,10.80
2023-02-12T13:25:08.049Z,10.80
2023-02-12T13:27:36.785Z,11.00
2023-02-12T13:30:17.115Z,11.20
2023-02-12T13:32:46.240Z,11.20
2023-02-12T13:35:21.135Z,11.80
2023-02-12T13:37:49.571Z,11.40
2023-02-12T13:40:18.202Z,11.40
2023-02-12T13:42:44.769Z,11.40
2023-02-12T13:45:11.287Z,11.40
2023-02-12T13:47:59.750Z,11.40
2023-02-12T13:50:29.255Z,11.40
2023-02-12T13:52:59.050Z,11.50
2023-02-12T13:55:39.299Z,11.70
2023-02-12T13:58:24.428Z,11.60
2023-02-12T14:00:50.927Z,11.70
2023-02-12T14:03:23.130Z,11.90
2023-02-12T14:06:06.454Z,11.90
2023-02-12T14:08:37.275Z,11.80
2023-02-12T14:11:05.238Z,11.80
2023-02-12T14:13:35.313Z,11.70
2023-02-12T14:16:18.604Z,11.70
2023-02-12T14:18:45.111Z,11.60
2023-02-12T14:21:11.741Z,11.50
2023-02-12T14:23:39.217Z,11.40
2023-02-12T14:26:08.614Z,11.40
2023-02-12T14:28:54.846Z,11.40
2023-02-12T14:31:27.717Z,11.40
2023-02-12T14:34:06.419Z,11.40
2023-02-12T14:36:32.954Z,11.50
2023-02-12T14:39:05.136Z,11.50
2023-02-12T14:41:38.909Z,11.40
2023-02-12T14:44:31.927Z,11.40
2023-02-12T14:46:59.857Z,11.10
2023-02-12T14:49:35.567Z,11.30
2023-02-12T14:52:12.385Z,11.20
2023-02-12T14:54:56.328Z,11.10
2023-02-12T14:57:27.311Z,10.90
2023-02-12T14:59:55.877Z,11.10
2023-02-12T15:02:27.143Z,11.10
2023-02-12T15:04:56.211Z,10.90
2023-02-12T15:07:27.470Z,10.80
2023-02-12T15:10:00.466Z,11.20
2023-02-12T15:12:47.348Z,10.80
2023-02-12T15:15:21.394Z,10.70
2023-02-12T15:17:58.976Z,10.60
2023-02-12T15:20:34.952Z,10.60
2023-02-12T15:23:03.344Z,10.50
2023-02-12T15:25:31.707Z,10.50
2023-02-12T15:28:00.586Z,10.40
2023-02-12T15:30:28.969Z,10.40
2023-02-12T15:32:56.293Z,10.40
2023-02-12T15:35:24.787Z,10.30
2023-02-12T15:37:51.770Z,10.30
2023-02-12T15:40:18.494Z,10.20
2023-02-12T15:43:05.364Z,10.10
2023-02-12T15:45:36.459Z,10.00
2023-02-12T15:48:09.332Z,9.80
2023-02-12T15:50:37.038Z,9.80
2023-02-12T15:53:03.738Z,9.70
2023-02-12T15:55:42.377Z,9.60
2023-02-12T15:58:19.860Z,9.60
2023-02-12T16:00:49.476Z,9.60
2023-02-12T16:03:27.032Z,9.60
2023-02-12T16:05:56.746Z,9.50
2023-02-12T16:08:24.149Z,9.40
2023-02-12T16:10:52.476Z,9.40
2023-02-12T16:13:20.946Z,9.30
2023-02-12T16:16:02.799Z,9.30
2023-02-12T16:18:29.418Z,9.20
2023-02-12T16:21:10.127Z,9.10
2023-02-12T16:23:36.690Z,9.00
2023-02-12T16:26:03.587Z,9.00
2023-02-12T16:28:31.577Z,8.80
2023-02-12T16:31:11.806Z,8.80
2023-02-12T16:33:43.218Z,8.70
2023-02-12T16:36:16.218Z,8.60
2023-02-12T16:38:42.845Z,8.50
2023-02-12T16:41:09.359Z,8.50
2023-02-12T16:43:35.953Z,8.30
2023-02-12T16:46:06.070Z,8.20
2023-02-12T16:48:37.137Z,8.00
2023-02-12T16:51:06.244Z,7.80
2023-02-12T16:53:33.505Z,7.80
2023-02-12T16:56:00.939Z,7.70
2023-02-12T16:58:28.452Z,7.50
2023-02-12T17:00:56.000Z,7.50
2023-02-12T17:03:24.235Z,7.40
2023-02-12T17:05:51.875Z,7.30
2023-02-12T17:08:20.727Z,7.20
2023-02-12T17:10:50.026Z,7.10
2023-02-12T17:13:17.006Z,7.10
2023-02-12T17:15:46.825Z,6.90
2023-02-12T17:18:14.160Z,6.90
2023-02-12T17:20:40.851Z,6.80
2023-02-12T17:23:07.501Z,6.70
2023-02-12T17:25:35.726Z,6.70
2023-02-12T17:28:02.365Z,6.60
2023-02-12T17:30:29.786Z,6.30
2023-02-12T17:32:56.321Z,6.40
2023-02-12T17:35:22.826Z,6.40
2023-02-12T17:37:49.355Z,6.30
2023-02-12T17:40:16.327Z,6.20
2023-02-12T17:42:42.910Z,6.10
2023-02-12T17:45:09.609Z,6.00
2023-02-12T17:47:39.881Z,6.00
2023-02-12T17:50:10.613Z,6.00
2023-02-12T17:52:37.211Z,5.90
2023-02-12T17:55:04.043Z,5.70
2023-02-12T17:57:30.622Z,5.60
2023-02-12T17:59:57.230Z,5.50
2023-02-12T18:02:23.930Z,5.50
2023-02-12T18:04:50.519Z,5.40
2023-02-12T18:07:17.117Z,5.40
2023-02-12T18:09:43.697Z,5.30
2023-02-12T18:12:10.284Z,5.20
2023-02-12T18:14:36.804Z,5.20
2023-02-12T18:17:03.339Z,5.10
2023-02-12T18:19:31.034Z,5.10
2023-02-12T18:21:57.571Z,5.10
2023-02-12T18:24:24.108Z,5.00
2023-02-12T18:26:50.848Z,5.10
2023-02-12T18:29:17.460Z,5.00
2023-02-12T18:31:44.184Z,5.00
2023-02-12T18:34:10.928Z,5.00
2023-02-12T18:36:37.481Z,5.00
2023-02-12T18:39:04.123Z,5.10
2023-02-12T18:41:31.945Z,5.10
2023-02-12T18:43:59.025Z,5.10
2023-02-12T18:46:27.515Z,5.10
2023-02-12T18:48:54.644Z,5.20
2023-02-12T18:51:22.747Z,5.20
2023-02-12T18:53:56.302Z,5.20
2023-02-12T18:56:23.124Z,5.20
2023-02-12T18:58:53.782Z,5.30
2023-02-12T19:01:20.518Z,5.30
2023-02-12T19:03:48.646Z,5.70
2023-02-12T19:06:15.305Z,5.40
2023-02-12T19:08:42.057Z,5.40
2023-02-12T19:11:09.792Z,5.60
2023-02-12T19:13:36.352Z,5.50
2023-02-12T19:16:07.048Z,5.40
2023-02-12T19:18:33.626Z,5.50
2023-02-12T19:21:00.765Z,5.50
2023-02-12T19:23:27.322Z,5.50
2023-02-12T19:25:53.839Z,5.50
2023-02-12T19:28:20.427Z,5.50
2023-02-12T19:30:47.052Z,5.50
2023-02-12T19:33:13.635Z,5.60
2023-02-12T19:35:41.958Z,5.50
2023-02-12T19:38:08.510Z,5.50
2023-02-12T19:40:35.033Z,5.50
2023-02-12T19:43:01.586Z,5.50
2023-02-12T19:45:28.232Z,5.50
2023-02-12T19:47:54.781Z,5.50
2023-02-12T19:50:21.285Z,5.50
2023-02-12T19:52:47.798Z,5.50
2023-02-12T19:55:14.419Z,5.50
2023-02-12T19:57:41.080Z,5.50
2023-02-12T20:00:08.058Z,5.50
2023-02-12T20:02:34.590Z,5.40
2023-02-12T20:05:01.106Z,5.50
2023-02-12T20:07:27.626Z,5.50
2023-02-12T20:09:54.176Z,5.50
2023-02-12T20:12:20.763Z,5.50
2023-02-12T20:14:47.335Z,5.50
2023-02-12T20:17:14.531Z,5.50
2023-02-12T20:19:41.015Z,5.50
2023-02-12T20:22:07.645Z,5.50
2023-02-12T20:24:34.265Z,5.50
2023-02-12T20:27:01.420Z,5.50
2023-02-12T20:29:28.669Z,5.50
2023-02-12T20:31:55.334Z,5.50
2023-02-12T20:34:22.265Z,5.50
2023-02-12T20:36:49.339Z,5.50
2023-02-12T20:39:17.396Z,5.60
2023-02-12T20:41:44.022Z,5.50
2023-02-12T20:44:15.910Z,5.50
2023-02-12T20:46:46.136Z,5.50
2023-02-12T20:49:16.705Z,5.50
2023-02-12T20:51:43.825Z,5.50
2023-02-12T20:54:10.747Z,5.50
2023-02-12T20:56:37.891Z,5.50
2023-02-12T20:59:05.097Z,5.50
2023-02-12T21:01:34.567Z,5.50
2023-02-12T21:04:02.409Z,5.60
2023-02-12T21:06:29.044Z,5.50
2023-02-12T21:08:55.555Z,5.50
2023-02-12T21:11:23.534Z,5.50
2023-02-12T21:13:58.866Z,5.60
2023-02-12T21:16:33.385Z,5.60
2023-02-12T21:19:00.008Z,5.60
2023-02-12T21:21:28.750Z,5.60
2023-02-12T21:23:57.049Z,5.50
2023-02-12T21:26:24.439Z,5.50
2023-02-12T21:28:51.847Z,5.60
2023-02-12T21:31:22.986Z,5.60
2023-02-12T21:33:50.400Z,5.50
2023-02-12T21:36:18.405Z,5.50
2023-02-12T21:38:46.014Z,5.50
2023-02-12T21:41:19.935Z,5.50
2023-02-12T21:43:48.020Z,5.90
2023-02-12T21:46:15.788Z,5.60
2023-02-12T21:48:43.114Z,5.60
2023-02-12T21:51:17.387Z,5.50
2023-02-12T21:53:43.881Z,5.50
2023-02-12T21:56:10.444Z,5.40
2023-02-12T21:58:37.013Z,5.30
2023-02-12T22:01:08.022Z,5.20
2023-02-12T22:03:34.612Z,5.20
2023-02-12T22:06:01.830Z,5.20
2023-02-12T22:08:28.442Z,5.10
2023-02-12T22:10:55.571Z,5.10
2023-02-12T22:13:22.297Z,5.20
2023-02-12T22:15:48.804Z,5.00
2023-02-12T22:18:15.404Z,4.90
2023-02-12T22:20:41.882Z,4.80
2023-02-12T22:23:08.426Z,4.80
2023-02-12T22:25:34.935Z,4.60
2023-02-12T22:28:01.643Z,4.60
2023-02-12T22:30:28.180Z,4.60
2023-02-12T22:32:54.736Z,4.50
2023-02-12T22:35:21.235Z,4.40
2023-02-12T22:37:47.714Z,4.40
2023-02-12T22:40:14.573Z,4.40
2023-02-12T22:42:41.118Z,4.30
2023-02-12T22:45:07.913Z,4.20
2023-02-12T22:47:34.446Z,4.10
2023-02-12T22:50:01.033Z,4.10
2023-02-12T22:52:28.115Z,4.00
2023-02-12T22:54:54.683Z,3.90
2023-02-12T22:57:21.249Z,3.80
2023-02-12T22:59:48.906Z,3.80
2023-02-12T23:02:15.742Z,3.70
2023-02-12T23:04:42.370Z,3.70
2023-02-12T23:07:08.954Z,3.60
2023-02-12T23:09:35.593Z,3.50
2023-02-12T23:12:07.312Z,3.40
2023-02-12T23:14:35.958Z,3.40
2023-02-12T23:17:03.598Z,3.40
2023-02-12T23:19:30.449Z,3.30
2023-02-12T23:21:57.358Z,3.20
2023-02-12T23:24:25.621Z,3.10
2023-02-12T23:26:52.978Z,3.10
2023-02-12T23:29:19.678Z,3.10
2023-02-12T23:31:46.343Z,3.10
2023-02-12T23:34:13.035Z,3.10
2023-02-12T23:36:39.625Z,3.10
2023-02-12T23:39:06.371Z,3.10
2023-02-12T23:41:33.008Z,3.00
2023-02-12T23:43:59.594Z,2.90
2023-02-12T23:46:26.193Z,2.90
2023-02-12T23:48:52.795Z,2.80
2023-02-12T23:51:19.358Z,2.80
2023-02-12T23:53:45.867Z,2.70
2023-02-12T23:56:12.407Z,2.60
2023-02-12T23:58:38.972Z,2.50
